Cassatt, South Carolina
Current Conditions -  °F | °C
As of 11:15 PM on Thursday 27 Nov 2014 (Local Time) from KCDN Reporting Station
Clear Clear  
Wind Chill: 36°   Ceiling: Unl
Heat Index: 36°   Visibility: 10mi
Dew Point: 28°   Wind: 0mph
Humidity: 75%   Direction: NA
Pressure: 30.31"   Gusts: NA
Location:  34.36°N, 80.44°W
Report Text: KCDN 280415Z AUTO 00000KT 10SM CLR 02/M02 A3031 RMK AO2 TSNO
Loading
Personal Weather Stations






























Interactive Weather Map New forecast layout! Learn more

10-Day Weather Forecast

Advertisements
Track Severe Weather on mobile